Beaufort, South Carolina
Current Conditions -  °F | °C
As of 12:55 PM on Saturday 25 Oct 2014 (Local Time) from KARW Reporting Station
Haze Haze  
Wind Chill: 70°   Ceiling: Unl
Heat Index: 70°   Visibility: 5mi
Dew Point: 50°   Wind: 6mph
Humidity: 49%   Direction: 340°NNW
Pressure: 30.01"   Gusts: NA
Location:  32.43°N, 80.67°W
Report Text: KARW 251655Z AUTO 34005KT 5SM HZ CLR 21/10 A3001 RMK AO2
Loading
Personal Weather Stations






























Interactive Weather Map
Tropical Storm Tracking
New forecast layout! Learn more

10-Day Weather Forecast

Advertisements
Track Severe Weather on mobile